Aviation Digital Data Service (ADDS)

Output produced by METARs form (2208 UTC 05 February 2016)
found at http://aviationweather.gov/adds/metars/
 
KFKL 051720Z 0518/0618 29008KT P6SM BKN030 
     FM051900 27006KT P6SM SCT035 
     FM060300 20003KT P6SM BKN050 
     FM061500 22008KT P6SM BKN035 AMD LTD TO CLD VIS AND WIND